createdAt,value
2018-10-05T00:00:46.332Z,12.90
2018-10-05T00:03:14.972Z,13.00
2018-10-05T00:05:43.530Z,13.00
2018-10-05T00:08:13.144Z,13.00
2018-10-05T00:10:41.841Z,13.00
2018-10-05T00:13:10.650Z,13.00
2018-10-05T00:15:40.399Z,13.00
2018-10-05T00:18:08.963Z,13.00
2018-10-05T00:20:37.584Z,13.00
2018-10-05T00:23:06.473Z,13.00
2018-10-05T00:25:35.030Z,13.00
2018-10-05T00:28:03.811Z,13.10
2018-10-05T00:30:32.298Z,13.00
2018-10-05T00:33:00.819Z,13.10
2018-10-05T00:35:29.642Z,13.00
2018-10-05T00:37:58.214Z,13.00
2018-10-05T00:40:26.898Z,13.10
2018-10-05T00:42:55.512Z,13.00
2018-10-05T00:45:24.015Z,13.00
2018-10-05T00:47:52.563Z,13.10
2018-10-05T00:50:21.094Z,13.00
2018-10-05T00:52:49.717Z,13.00
2018-10-05T00:55:18.405Z,13.00
2018-10-05T00:57:46.946Z,13.00
2018-10-05T01:00:15.482Z,13.00
2018-10-05T01:02:44.026Z,13.00
2018-10-05T01:05:12.604Z,12.90
2018-10-05T01:07:41.139Z,12.90
2018-10-05T01:10:09.671Z,12.90
2018-10-05T01:12:38.260Z,12.90
2018-10-05T01:15:10.667Z,12.90
2018-10-05T01:17:39.478Z,12.90
2018-10-05T01:20:08.011Z,12.80
2018-10-05T01:22:36.530Z,12.80
2018-10-05T01:25:05.162Z,12.80
2018-10-05T01:27:33.694Z,12.80
2018-10-05T01:30:02.238Z,12.80
2018-10-05T01:32:30.746Z,12.80
2018-10-05T01:34:59.287Z,12.80
2018-10-05T01:37:27.879Z,12.80
2018-10-05T01:39:56.452Z,12.80
2018-10-05T01:42:30.092Z,12.80
2018-10-05T01:44:58.663Z,12.80
2018-10-05T01:47:28.314Z,12.80
2018-10-05T01:49:56.903Z,12.70
2018-10-05T01:52:25.694Z,12.70
2018-10-05T01:54:55.087Z,12.60
2018-10-05T01:57:23.733Z,12.50
2018-10-05T01:59:52.238Z,12.40
2018-10-05T02:02:21.192Z,12.40
2018-10-05T02:04:49.902Z,12.30
2018-10-05T02:07:18.509Z,12.30
2018-10-05T02:09:48.458Z,12.20
2018-10-05T02:12:16.975Z,12.20
2018-10-05T02:14:45.795Z,12.20
2018-10-05T02:17:14.329Z,12.10
2018-10-05T02:19:42.801Z,12.10
2018-10-05T02:22:11.380Z,12.10
2018-10-05T02:24:39.984Z,12.00
2018-10-05T02:27:08.603Z,12.00
2018-10-05T02:29:37.365Z,11.90
2018-10-05T02:32:06.146Z,11.90
2018-10-05T02:34:35.028Z,11.80
2018-10-05T02:37:03.625Z,11.80
2018-10-05T02:39:32.182Z,11.80
2018-10-05T02:42:00.770Z,11.70
2018-10-05T02:44:29.263Z,11.60
2018-10-05T02:46:57.814Z,11.60
2018-10-05T02:49:26.295Z,11.60
2018-10-05T02:51:54.948Z,11.50
2018-10-05T02:54:23.791Z,11.50
2018-10-05T02:56:52.309Z,11.40
2018-10-05T02:59:20.838Z,11.40
2018-10-05T03:02:00.800Z,11.30
2018-10-05T03:04:29.290Z,11.20
2018-10-05T03:06:57.822Z,11.20
2018-10-05T03:09:27.030Z,11.10
2018-10-05T03:11:56.083Z,11.10
2018-10-05T03:14:24.826Z,11.00
2018-10-05T03:16:53.762Z,11.00
2018-10-05T03:19:22.299Z,10.90
2018-10-05T03:21:50.842Z,10.90
2018-10-05T03:24:19.374Z,10.90
2018-10-05T03:26:47.944Z,10.90
2018-10-05T03:29:16.551Z,10.80
2018-10-05T03:31:45.119Z,10.80
2018-10-05T03:34:13.825Z,10.80
2018-10-05T03:36:42.351Z,10.80
2018-10-05T03:39:11.616Z,10.80
2018-10-05T03:41:40.638Z,10.80
2018-10-05T03:44:09.234Z,10.80
2018-10-05T03:46:37.787Z,10.80
2018-10-05T03:49:06.766Z,10.70
2018-10-05T03:51:35.298Z,10.70
2018-10-05T03:54:04.205Z,10.80
2018-10-05T03:56:32.752Z,10.70
2018-10-05T03:59:02.035Z,10.70
2018-10-05T04:01:30.876Z,10.70
2018-10-05T04:03:59.419Z,10.70
2018-10-05T04:06:27.963Z,10.60
2018-10-05T04:08:57.006Z,10.60
2018-10-05T04:11:26.224Z,10.60
2018-10-05T04:13:54.992Z,10.50
2018-10-05T04:16:24.502Z,10.50
2018-10-05T04:18:53.319Z,10.50
2018-10-05T04:21:21.838Z,10.50
2018-10-05T04:23:50.379Z,10.50
2018-10-05T04:26:18.868Z,10.40
2018-10-05T04:28:47.414Z,10.50
2018-10-05T04:31:15.947Z,10.40
2018-10-05T04:33:44.786Z,10.40
2018-10-05T04:36:13.295Z,10.40
2018-10-05T04:38:41.820Z,10.40
2018-10-05T04:41:10.401Z,10.40
2018-10-05T04:43:41.266Z,10.30
2018-10-05T04:46:09.743Z,10.30
2018-10-05T04:48:38.271Z,10.30
2018-10-05T04:51:07.000Z,10.20
2018-10-05T04:53:35.819Z,10.20
2018-10-05T04:56:05.159Z,10.20
2018-10-05T04:58:33.706Z,10.20
2018-10-05T05:01:02.870Z,10.10
2018-10-05T05:03:31.486Z,10.10
2018-10-05T05:06:00.002Z,10.00
2018-10-05T05:08:28.607Z,10.00
2018-10-05T05:10:57.127Z,10.00
2018-10-05T05:13:26.438Z,10.00
2018-10-05T05:15:55.282Z,9.90
2018-10-05T05:18:23.881Z,9.90
2018-10-05T05:20:52.443Z,9.90
2018-10-05T05:23:20.990Z,9.90
2018-10-05T05:25:49.510Z,9.80
2018-10-05T05:28:18.328Z,9.80
2018-10-05T05:30:46.856Z,9.90
2018-10-05T05:33:15.384Z,9.90
2018-10-05T05:35:44.835Z,9.80
2018-10-05T05:38:14.078Z,9.90
2018-10-05T05:40:42.764Z,10.00
2018-10-05T05:43:12.026Z,10.00
2018-10-05T05:45:40.563Z,10.00
2018-10-05T05:48:09.351Z,10.10
2018-10-05T05:50:38.738Z,10.10
2018-10-05T05:53:07.336Z,10.20
2018-10-05T05:55:35.887Z,10.30
2018-10-05T05:58:04.478Z,10.30
2018-10-05T06:00:32.972Z,10.40
2018-10-05T06:03:01.795Z,10.40
2018-10-05T06:05:30.329Z,10.50
2018-10-05T06:07:59.464Z,10.50
2018-10-05T06:10:27.982Z,10.60
2018-10-05T06:12:56.998Z,10.70
2018-10-05T06:15:25.653Z,10.70
2018-10-05T06:17:54.182Z,10.80
2018-10-05T06:20:22.726Z,10.90
2018-10-05T06:22:51.278Z,10.90
2018-10-05T06:25:19.832Z,11.00
2018-10-05T06:27:49.744Z,11.10
2018-10-05T06:30:18.794Z,11.10
2018-10-05T06:32:47.975Z,11.20
2018-10-05T06:35:16.741Z,11.30
2018-10-05T06:37:46.229Z,11.30
2018-10-05T06:40:15.268Z,11.40
2018-10-05T06:42:44.522Z,11.50
2018-10-05T06:45:13.754Z,11.50
2018-10-05T06:47:42.329Z,11.50
2018-10-05T06:50:11.311Z,11.60
2018-10-05T06:52:40.579Z,11.70
2018-10-05T06:55:09.143Z,11.70
2018-10-05T06:57:37.710Z,11.80
2018-10-05T07:00:06.693Z,11.80
2018-10-05T07:02:35.291Z,11.90
2018-10-05T07:05:04.760Z,12.00
2018-10-05T07:07:33.347Z,12.00
2018-10-05T07:10:01.944Z,12.10
2018-10-05T07:12:30.490Z,12.10
2018-10-05T07:14:59.144Z,12.20
2018-10-05T07:17:27.717Z,12.20
2018-10-05T07:19:56.278Z,12.30
2018-10-05T07:22:25.570Z,12.40
2018-10-05T07:24:54.186Z,12.50
2018-10-05T07:27:22.706Z,12.50
2018-10-05T07:29:51.273Z,12.60
2018-10-05T07:32:19.816Z,12.70
2018-10-05T07:34:48.379Z,12.80
2018-10-05T07:37:17.679Z,12.90
2018-10-05T07:39:46.202Z,12.90
2018-10-05T07:42:14.746Z,13.00
2018-10-05T07:44:44.127Z,13.10
2018-10-05T07:47:13.708Z,13.20
2018-10-05T07:49:42.277Z,13.30
2018-10-05T07:52:11.551Z,13.40
2018-10-05T07:54:40.795Z,13.50
2018-10-05T07:57:09.360Z,13.60
2018-10-05T07:59:37.965Z,13.70
2018-10-05T08:02:07.416Z,13.80
2018-10-05T08:04:36.201Z,13.90
2018-10-05T08:07:04.841Z,14.00
2018-10-05T08:09:33.434Z,14.10
2018-10-05T08:12:03.044Z,14.20
2018-10-05T08:14:31.930Z,14.30
2018-10-05T08:17:00.438Z,14.40
2018-10-05T08:19:29.047Z,14.50
2018-10-05T08:21:57.663Z,14.60
2018-10-05T08:24:26.920Z,14.70
2018-10-05T08:26:55.461Z,14.80
2018-10-05T08:29:24.073Z,14.90
2018-10-05T08:31:52.606Z,15.00
2018-10-05T08:34:21.495Z,15.10
2018-10-05T08:36:49.943Z,15.20
2018-10-05T08:39:18.801Z,15.30
2018-10-05T08:41:47.929Z,15.50
2018-10-05T08:44:16.492Z,15.60
2018-10-05T08:46:45.302Z,15.70
2018-10-05T08:49:14.267Z,15.80
2018-10-05T08:51:42.873Z,15.90
2018-10-05T08:54:11.474Z,16.00
2018-10-05T08:56:40.356Z,16.10
2018-10-05T08:59:08.961Z,16.20
2018-10-05T09:01:37.498Z,16.30
2018-10-05T09:04:06.057Z,16.40
2018-10-05T09:06:34.560Z,16.50
2018-10-05T09:09:03.203Z,16.50
2018-10-05T09:11:32.555Z,16.60
2018-10-05T09:14:01.392Z,16.70
2018-10-05T09:16:30.130Z,16.80
2018-10-05T09:18:58.694Z,16.90
2018-10-05T09:21:27.322Z,17.00
2018-10-05T09:23:55.891Z,17.10
2018-10-05T09:26:24.703Z,17.10
2018-10-05T09:28:53.218Z,17.20
2018-10-05T09:31:21.769Z,17.30
2018-10-05T09:33:50.296Z,17.40
2018-10-05T09:36:18.859Z,17.40
2018-10-05T09:38:47.391Z,17.50
2018-10-05T09:41:15.945Z,17.60
2018-10-05T09:43:44.572Z,17.70
2018-10-05T09:46:13.102Z,17.70
2018-10-05T09:48:41.629Z,17.80
2018-10-05T09:51:10.283Z,17.90
2018-10-05T09:53:39.160Z,17.90
2018-10-05T09:56:08.182Z,18.00
2018-10-05T09:58:36.963Z,18.10
2018-10-05T10:01:10.642Z,18.10
2018-10-05T10:03:39.916Z,18.10
2018-10-05T10:06:08.592Z,18.20
2018-10-05T10:08:37.182Z,18.20
2018-10-05T10:11:06.104Z,18.30
2018-10-05T10:13:34.934Z,18.30
2018-10-05T10:16:03.540Z,18.30
2018-10-05T10:18:32.074Z,18.30
2018-10-05T10:21:00.696Z,18.30
2018-10-05T10:23:29.240Z,18.40
2018-10-05T10:25:57.786Z,18.40
2018-10-05T10:28:26.509Z,18.40
2018-10-05T10:30:55.039Z,18.40
2018-10-05T10:33:23.589Z,18.40
2018-10-05T10:35:52.172Z,18.40
2018-10-05T10:38:20.778Z,18.40
2018-10-05T10:40:49.358Z,18.40
2018-10-05T10:43:17.887Z,18.40
2018-10-05T10:45:46.540Z,18.40
2018-10-05T10:48:15.157Z,18.40
2018-10-05T10:50:43.705Z,18.40
2018-10-05T10:53:12.354Z,18.30
2018-10-05T10:55:40.848Z,18.30
2018-10-05T10:58:09.400Z,18.30
2018-10-05T11:00:38.053Z,18.30
2018-10-05T11:03:06.802Z,18.30
2018-10-05T11:05:35.521Z,18.20
2018-10-05T11:08:04.067Z,18.20
2018-10-05T11:10:32.648Z,18.20
2018-10-05T11:13:01.378Z,18.10
2018-10-05T11:15:31.165Z,18.10
2018-10-05T11:17:59.791Z,18.00
2018-10-05T11:20:28.460Z,18.00
2018-10-05T11:22:57.078Z,17.90
2018-10-05T11:25:25.727Z,17.90
2018-10-05T11:27:54.275Z,17.80
2018-10-05T11:30:23.171Z,17.80
2018-10-05T11:32:52.172Z,17.70
2018-10-05T11:35:20.965Z,17.60
2018-10-05T11:37:49.604Z,17.60
2018-10-05T11:40:18.436Z,17.60
2018-10-05T11:42:47.371Z,17.50
2018-10-05T11:45:15.985Z,17.50
2018-10-05T11:47:44.563Z,17.50
2018-10-05T11:50:13.176Z,17.50
2018-10-05T11:52:41.747Z,17.50
2018-10-05T11:55:10.339Z,17.40
2018-10-05T11:57:38.924Z,17.40
2018-10-05T12:00:08.057Z,17.30
2018-10-05T12:02:37.248Z,17.20
2018-10-05T12:05:05.925Z,17.20
2018-10-05T12:07:34.451Z,17.10
2018-10-05T12:10:03.073Z,17.10
2018-10-05T12:12:31.595Z,17.10
2018-10-05T12:15:00.331Z,17.10
2018-10-05T12:17:28.962Z,17.10
2018-10-05T12:19:57.664Z,17.10
2018-10-05T12:22:26.154Z,17.10
2018-10-05T12:24:54.828Z,17.10
2018-10-05T12:27:23.384Z,17.10
2018-10-05T12:29:52.052Z,17.10
2018-10-05T12:32:20.728Z,17.10
2018-10-05T12:34:49.476Z,17.10
2018-10-05T12:37:18.097Z,17.10
2018-10-05T12:39:46.651Z,17.10
2018-10-05T12:42:15.411Z,17.10
2018-10-05T12:44:44.119Z,17.10
2018-10-05T12:47:13.765Z,17.10
2018-10-05T12:49:42.343Z,17.20
2018-10-05T12:52:10.883Z,17.10
2018-10-05T12:54:39.674Z,17.20
2018-10-05T12:57:08.266Z,17.20
2018-10-05T12:59:36.930Z,17.30
2018-10-05T13:02:05.545Z,17.30
2018-10-05T13:04:34.635Z,17.30
2018-10-05T13:07:04.357Z,17.40
2018-10-05T13:09:32.911Z,17.40
2018-10-05T13:12:01.404Z,17.40
2018-10-05T13:14:30.019Z,17.40
2018-10-05T13:16:58.640Z,17.40
2018-10-05T13:19:27.366Z,17.40
2018-10-05T13:21:56.085Z,17.40
2018-10-05T13:24:24.597Z,17.40
2018-10-05T13:26:53.216Z,17.50
2018-10-05T13:29:21.905Z,17.50
2018-10-05T13:31:50.474Z,17.60
2018-10-05T13:34:18.982Z,17.60
2018-10-05T13:36:47.690Z,17.60
2018-10-05T13:39:16.258Z,17.60
2018-10-05T13:41:44.905Z,17.60
2018-10-05T13:44:13.786Z,17.70
2018-10-05T13:46:42.439Z,17.70
2018-10-05T13:49:11.011Z,17.70
2018-10-05T13:51:39.594Z,17.80
2018-10-05T13:54:08.936Z,17.80
2018-10-05T13:56:38.200Z,17.80
2018-10-05T13:59:07.451Z,17.80
2018-10-05T14:01:36.483Z,17.80
2018-10-05T14:04:05.547Z,17.80
2018-10-05T14:06:35.101Z,17.80
2018-10-05T14:09:05.324Z,17.80
2018-10-05T14:11:34.894Z,17.90
2018-10-05T14:14:03.971Z,17.90
2018-10-05T14:16:32.552Z,17.90
2018-10-05T14:19:01.153Z,17.80
2018-10-05T14:21:29.751Z,17.80
2018-10-05T14:23:58.431Z,17.80
2018-10-05T14:26:27.007Z,17.80
2018-10-05T14:28:55.827Z,17.80
2018-10-05T14:31:25.093Z,17.80
2018-10-05T14:33:53.974Z,17.90
2018-10-05T14:36:22.509Z,17.90
2018-10-05T14:38:51.874Z,17.90
2018-10-05T14:41:20.448Z,17.90
2018-10-05T14:43:49.037Z,17.90
2018-10-05T14:46:17.826Z,17.90
2018-10-05T14:48:48.097Z,17.90
2018-10-05T14:51:17.193Z,17.90
2018-10-05T14:53:45.865Z,17.90
2018-10-05T14:56:14.439Z,17.90
2018-10-05T14:58:43.106Z,18.00
2018-10-05T15:01:11.871Z,18.00
2018-10-05T15:03:41.075Z,18.00
2018-10-05T15:06:10.028Z,18.00
2018-10-05T15:08:38.612Z,18.00
2018-10-05T15:11:07.439Z,18.00
2018-10-05T15:13:36.193Z,18.00
2018-10-05T15:16:04.784Z,18.00
2018-10-05T15:18:33.303Z,18.00
2018-10-05T15:21:01.887Z,18.00
2018-10-05T15:23:31.134Z,17.90
2018-10-05T15:25:59.787Z,17.90
2018-10-05T15:28:28.318Z,17.80
2018-10-05T15:30:56.897Z,17.80
2018-10-05T15:33:25.670Z,17.70
2018-10-05T15:35:54.288Z,17.70
2018-10-05T15:38:22.891Z,17.60
2018-10-05T15:40:51.462Z,17.60
2018-10-05T15:43:20.077Z,17.50
2018-10-05T15:45:48.662Z,17.50
2018-10-05T15:48:17.462Z,17.50
2018-10-05T15:50:46.274Z,17.40
2018-10-05T15:53:14.950Z,17.40
2018-10-05T15:55:43.506Z,17.40
2018-10-05T15:58:12.106Z,17.40
2018-10-05T16:00:40.831Z,17.30
2018-10-05T16:03:09.472Z,17.30
2018-10-05T16:05:38.188Z,17.20
2018-10-05T16:08:06.692Z,17.20
2018-10-05T16:10:35.284Z,17.20
2018-10-05T16:13:04.019Z,17.10
2018-10-05T16:15:32.595Z,17.10
2018-10-05T16:18:01.792Z,17.00
2018-10-05T16:20:30.342Z,17.00
2018-10-05T16:22:58.876Z,16.90
2018-10-05T16:25:27.475Z,16.90
2018-10-05T16:27:55.982Z,16.90
2018-10-05T16:30:24.519Z,16.80
2018-10-05T16:32:53.063Z,16.80
2018-10-05T16:35:21.625Z,16.80
2018-10-05T16:37:50.491Z,16.70
2018-10-05T16:40:21.009Z,16.70
2018-10-05T16:42:49.502Z,16.60
2018-10-05T16:45:18.052Z,16.50
2018-10-05T16:47:46.684Z,16.50
2018-10-05T16:50:15.233Z,16.50
2018-10-05T16:52:43.918Z,16.40
2018-10-05T16:55:12.461Z,16.40
2018-10-05T16:57:40.978Z,16.40
2018-10-05T17:00:09.522Z,16.30
2018-10-05T17:02:38.154Z,16.30
2018-10-05T17:05:06.780Z,16.20
2018-10-05T17:07:35.381Z,16.20
2018-10-05T17:10:03.967Z,16.10
2018-10-05T17:12:32.558Z,16.10
2018-10-05T17:15:01.137Z,16.00
2018-10-05T17:17:29.670Z,16.00
2018-10-05T17:19:58.254Z,15.90
2018-10-05T17:22:26.812Z,15.90
2018-10-05T17:24:55.431Z,15.90
2018-10-05T17:27:23.999Z,15.80
2018-10-05T17:29:52.561Z,15.80
2018-10-05T17:32:21.110Z,15.80
2018-10-05T17:34:49.678Z,15.80
2018-10-05T17:37:18.190Z,15.70
2018-10-05T17:39:46.842Z,15.70
2018-10-05T17:42:15.478Z,15.70
2018-10-05T17:44:44.125Z,15.60
2018-10-05T17:47:12.723Z,15.60
2018-10-05T17:49:41.265Z,15.50
2018-10-05T17:52:09.980Z,15.50
2018-10-05T17:54:38.723Z,15.50
2018-10-05T17:57:07.230Z,15.50
2018-10-05T17:59:35.838Z,15.50
2018-10-05T18:02:04.384Z,15.40
2018-10-05T18:04:33.093Z,15.40
2018-10-05T18:07:01.636Z,15.30
2018-10-05T18:09:30.200Z,15.30
2018-10-05T18:11:59.677Z,15.30
2018-10-05T18:14:28.412Z,15.30
2018-10-05T18:16:56.944Z,15.30
2018-10-05T18:19:25.519Z,15.20
2018-10-05T18:21:54.114Z,15.20
2018-10-05T18:24:22.684Z,15.10
2018-10-05T18:26:51.373Z,15.10
2018-10-05T18:29:20.070Z,15.10
2018-10-05T18:31:48.804Z,15.10
2018-10-05T18:34:17.422Z,15.00
2018-10-05T18:36:46.053Z,15.00
2018-10-05T18:39:14.632Z,15.00
2018-10-05T18:41:43.541Z,15.00
2018-10-05T18:44:12.171Z,14.90
2018-10-05T18:46:40.809Z,14.90
2018-10-05T18:49:10.016Z,14.90
2018-10-05T18:51:39.011Z,14.90
2018-10-05T18:54:07.746Z,14.90
2018-10-05T18:56:47.728Z,14.80
2018-10-05T18:59:19.610Z,14.80
2018-10-05T19:01:50.367Z,14.80
2018-10-05T19:04:18.961Z,14.70
2018-10-05T19:06:47.613Z,14.70
2018-10-05T19:09:16.143Z,14.70
2018-10-05T19:11:44.831Z,14.60
2018-10-05T19:14:13.931Z,14.60
2018-10-05T19:16:42.548Z,14.60
2018-10-05T19:19:11.322Z,14.50
2018-10-05T19:21:40.287Z,14.50
2018-10-05T19:24:09.484Z,14.50
2018-10-05T19:26:38.315Z,14.40
2018-10-05T19:29:06.756Z,14.40
2018-10-05T19:31:35.333Z,14.30
2018-10-05T19:34:04.125Z,14.30
2018-10-05T19:36:33.029Z,14.30
2018-10-05T19:39:02.130Z,14.20
2018-10-05T19:41:30.659Z,14.20
2018-10-05T19:43:59.262Z,14.10
2018-10-05T19:46:28.016Z,14.10
2018-10-05T19:48:56.663Z,14.10
2018-10-05T19:51:25.291Z,14.00
2018-10-05T19:53:54.543Z,14.00
2018-10-05T19:56:23.225Z,14.00
2018-10-05T19:58:52.003Z,13.90
2018-10-05T20:01:20.693Z,13.80
2018-10-05T20:03:49.455Z,13.80
2018-10-05T20:06:18.233Z,13.70
2018-10-05T20:08:46.922Z,13.80
2018-10-05T20:11:15.570Z,13.70
2018-10-05T20:13:44.224Z,13.70
2018-10-05T20:16:12.863Z,13.60
2018-10-05T20:18:41.644Z,13.60
2018-10-05T20:21:10.724Z,13.60
2018-10-05T20:23:39.817Z,13.50
2018-10-05T20:26:08.541Z,13.60
2018-10-05T20:28:37.473Z,13.50
2018-10-05T20:31:06.301Z,13.50
2018-10-05T20:33:34.987Z,13.40
2018-10-05T20:36:03.730Z,13.40
2018-10-05T20:38:32.700Z,13.40
2018-10-05T20:41:01.299Z,13.30
2018-10-05T20:43:30.031Z,13.30
2018-10-05T20:45:58.682Z,13.30
2018-10-05T20:48:27.982Z,13.30
2018-10-05T20:50:57.585Z,13.30
2018-10-05T20:53:26.244Z,13.20
2018-10-05T20:55:54.783Z,13.20
2018-10-05T20:58:23.372Z,13.20
2018-10-05T21:00:51.939Z,13.20
2018-10-05T21:03:20.673Z,13.20
2018-10-05T21:05:49.690Z,13.10
2018-10-05T21:08:18.349Z,13.10
2018-10-05T21:10:46.904Z,13.10
2018-10-05T21:13:15.860Z,13.10
2018-10-05T21:15:44.441Z,13.10
2018-10-05T21:18:13.027Z,13.00
2018-10-05T21:20:41.602Z,13.00
2018-10-05T21:23:10.351Z,13.00
2018-10-05T21:25:39.245Z,13.00
2018-10-05T21:28:08.135Z,13.00
2018-10-05T21:30:36.678Z,12.90
2018-10-05T21:33:05.483Z,13.00
2018-10-05T21:35:34.009Z,12.90
2018-10-05T21:38:02.635Z,12.90
2018-10-05T21:40:31.351Z,13.00
2018-10-05T21:42:59.961Z,12.90
2018-10-05T21:45:29.141Z,12.90
2018-10-05T21:47:57.830Z,12.90
2018-10-05T21:50:27.905Z,12.80
2018-10-05T21:52:57.202Z,12.80
2018-10-05T21:55:25.863Z,12.80
2018-10-05T21:57:54.419Z,12.70
2018-10-05T22:00:24.157Z,12.70
2018-10-05T22:02:52.689Z,12.70
2018-10-05T22:05:21.507Z,12.60
2018-10-05T22:07:50.649Z,12.60
2018-10-05T22:10:19.302Z,12.60
2018-10-05T22:12:48.021Z,12.60
2018-10-05T22:15:17.366Z,12.60
2018-10-05T22:17:46.362Z,12.60
2018-10-05T22:20:14.994Z,12.70
2018-10-05T22:22:43.639Z,12.70
2018-10-05T22:25:12.199Z,12.70
2018-10-05T22:27:40.889Z,12.70
2018-10-05T22:30:09.813Z,12.70
2018-10-05T22:32:38.514Z,12.70
2018-10-05T22:35:07.087Z,12.70
2018-10-05T22:37:35.742Z,12.70
2018-10-05T22:40:04.300Z,12.70
2018-10-05T22:42:33.390Z,12.70
2018-10-05T22:45:02.043Z,12.70
2018-10-05T22:47:31.058Z,12.70
2018-10-05T22:49:59.695Z,12.60
2018-10-05T22:52:28.756Z,12.60
2018-10-05T22:54:57.330Z,12.60
2018-10-05T22:57:25.862Z,12.60
2018-10-05T22:59:54.442Z,12.50
2018-10-05T23:02:23.110Z,12.50
2018-10-05T23:04:52.054Z,12.50
2018-10-05T23:07:20.725Z,12.50
2018-10-05T23:09:49.321Z,12.50
2018-10-05T23:12:18.550Z,12.50
2018-10-05T23:14:47.086Z,12.50
2018-10-05T23:17:15.839Z,12.50
2018-10-05T23:19:45.085Z,12.50
2018-10-05T23:22:13.728Z,12.50
2018-10-05T23:24:42.375Z,12.50
2018-10-05T23:27:11.267Z,12.50
2018-10-05T23:29:39.898Z,12.50
2018-10-05T23:32:08.535Z,12.60
2018-10-05T23:34:37.066Z,12.60
2018-10-05T23:37:05.659Z,12.60
2018-10-05T23:39:34.236Z,12.60
2018-10-05T23:42:02.811Z,12.70
2018-10-05T23:44:31.743Z,12.60
2018-10-05T23:47:00.658Z,12.70
2018-10-05T23:49:30.982Z,12.70
2018-10-05T23:52:08.719Z,12.70
2018-10-05T23:54:37.262Z,12.70
2018-10-05T23:57:05.962Z,12.70
2018-10-05T23:59:34.518Z,12.70
